Time;durP1;ratioP1;P1;durP2;ratioP2;P2;SDS_P1;SDS_P2;PMS_P1;PMS_P2;Temp;Humidity;BMP_temperature;BMP_pressure;BME280_temperature;BME280_humidity;BME280_pressure;Samples;Min_cycle;Max_cycle;Signal;HPM_P1;HPM_P2
2021/01/18 00:01:37;;;;;;;37.33;17.57;;;2.20;99.90;;;;;;5046713;28;20472;-73
2021/01/18 00:04:03;;;;;;;22.50;16.67;;;2.20;99.90;;;;;;5039018;28;20201;-73
2021/01/18 00:06:29;;;;;;;23.07;17.10;;;2.20;99.90;;;;;;5040944;28;20952;-73
2021/01/18 00:08:55;;;;;;;26.13;16.17;;;2.20;99.90;;;;;;5043476;28;20543;-72
2021/01/18 00:11:22;;;;;;;25.13;17.17;;;2.20;99.90;;;;;;5045640;28;20246;-72
2021/01/18 00:13:49;;;;;;;22.97;16.77;;;2.20;99.90;;;;;;5041071;28;20220;-72
2021/01/18 00:16:16;;;;;;;29.43;18.70;;;2.20;99.90;;;;;;5041644;28;20536;-71
2021/01/18 00:18:42;;;;;;;27.10;17.30;;;2.20;99.90;;;;;;5045166;28;20484;-71
2021/01/18 00:21:07;;;;;;;24.17;15.60;;;2.20;99.90;;;;;;5045560;28;20460;-72
2021/01/18 00:23:38;;;;;;;24.10;16.07;;;2.20;99.90;;;;;;5046284;28;20183;-71
2021/01/18 00:26:05;;;;;;;23.57;15.17;;;2.20;99.90;;;;;;5043969;28;20255;-72
2021/01/18 00:28:31;;;;;;;23.80;17.57;;;2.20;99.90;;;;;;5040071;28;20491;-72
2021/01/18 00:30:58;;;;;;;23.50;17.60;;;2.20;99.90;;;;;;5036174;28;20465;-72
2021/01/18 00:33:24;;;;;;;21.00;16.50;;;2.30;99.90;;;;;;5039613;28;20425;-72
2021/01/18 00:35:49;;;;;;;22.90;16.67;;;2.30;99.90;;;;;;5041790;28;20431;-73
2021/01/18 00:38:15;;;;;;;21.03;15.40;;;2.30;99.90;;;;;;5042481;28;20288;-72
2021/01/18 00:40:40;;;;;;;24.93;16.57;;;2.30;99.90;;;;;;5045103;28;20252;-72
2021/01/18 00:43:06;;;;;;;22.03;15.47;;;2.30;99.90;;;;;;5043644;28;20243;-72
2021/01/18 00:45:31;;;;;;;22.20;14.67;;;2.30;99.90;;;;;;5041235;28;20236;-73
2021/01/18 00:47:57;;;;;;;18.50;14.43;;;2.30;99.90;;;;;;5036491;28;20194;-72
2021/01/18 00:50:25;;;;;;;19.00;14.40;;;2.30;99.90;;;;;;5045455;28;20217;-71
2021/01/18 00:52:52;;;;;;;20.23;14.27;;;2.40;99.90;;;;;;5033725;28;20706;-72
2021/01/18 00:55:22;;;;;;;23.53;16.30;;;2.40;99.90;;;;;;5040306;28;20421;-72
2021/01/18 00:57:48;;;;;;;24.40;15.80;;;2.40;99.90;;;;;;5041981;28;20819;-72
2021/01/18 01:00:28;;;;;;;20.93;14.90;;;2.40;99.90;;;;;;5046337;28;20615;-72
2021/01/18 01:02:54;;;;;;;21.20;13.50;;;2.40;99.90;;;;;;5039011;28;20964;-72
2021/01/18 01:05:22;;;;;;;20.73;13.70;;;2.40;99.90;;;;;;5045271;28;20482;-72
2021/01/18 01:07:50;;;;;;;19.40;14.87;;;2.40;99.90;;;;;;5040044;28;20482;-72
2021/01/18 01:10:18;;;;;;;24.87;15.27;;;2.40;99.90;;;;;;5042647;28;20462;-73
2021/01/18 01:12:44;;;;;;;17.70;13.97;;;2.40;99.90;;;;;;5048519;28;20429;-72
2021/01/18 01:15:10;;;;;;;19.87;13.90;;;2.50;99.90;;;;;;5041893;28;20452;-73
2021/01/18 01:17:43;;;;;;;22.30;13.80;;;2.50;99.90;;;;;;5047469;28;20197;-72
2021/01/18 01:20:19;;;;;;;19.30;13.63;;;2.50;99.90;;;;;;5045996;28;20460;-72
2021/01/18 01:22:45;;;;;;;24.77;14.40;;;2.40;99.90;;;;;;5048066;28;20485;-72
2021/01/18 01:25:12;;;;;;;24.30;16.27;;;2.40;99.90;;;;;;5043959;28;20429;-72
2021/01/18 01:27:39;;;;;;;22.03;15.17;;;2.40;99.90;;;;;;5043675;28;20389;-72
2021/01/18 01:30:07;;;;;;;19.07;14.77;;;2.40;99.90;;;;;;5043568;28;20444;-72
2021/01/18 01:32:32;;;;;;;23.30;14.10;;;2.40;99.90;;;;;;5043169;28;20429;-72
2021/01/18 01:34:58;;;;;;;23.27;14.83;;;2.40;99.90;;;;;;5044228;28;20430;-72
2021/01/18 01:37:24;;;;;;;27.03;16.03;;;2.40;99.90;;;;;;5043076;28;20441;-72
2021/01/18 01:39:49;;;;;;;19.63;15.40;;;2.50;99.90;;;;;;5038247;28;20226;-73
2021/01/18 01:42:20;;;;;;;20.80;14.97;;;2.50;99.90;;;;;;5047125;28;20221;-72
2021/01/18 01:44:46;;;;;;;20.77;14.87;;;2.40;99.90;;;;;;5047869;28;20191;-73
2021/01/18 01:47:20;;;;;;;16.70;13.80;;;2.50;99.90;;;;;;5048668;28;20939;-73
2021/01/18 01:49:46;;;;;;;19.60;14.37;;;2.40;99.90;;;;;;5048273;28;20575;-72
2021/01/18 01:52:12;;;;;;;19.57;15.67;;;2.40;99.90;;;;;;5045125;28;20475;-72
2021/01/18 01:54:41;;;;;;;17.93;15.13;;;2.50;99.90;;;;;;5047117;28;20194;-73
2021/01/18 01:57:07;;;;;;;22.43;16.17;;;2.40;99.90;;;;;;5040293;28;20480;-72
2021/01/18 01:59:33;;;;;;;24.13;16.53;;;2.50;99.90;;;;;;5043642;28;20556;-73
2021/01/18 02:01:59;;;;;;;22.07;13.40;;;2.50;99.90;;;;;;5045082;28;20443;-73
2021/01/18 02:04:25;;;;;;;16.37;13.00;;;2.40;99.90;;;;;;5043256;28;20194;-72
2021/01/18 02:06:50;;;;;;;22.07;15.23;;;2.40;99.90;;;;;;5046241;28;20695;-73
2021/01/18 02:09:16;;;;;;;19.97;15.93;;;2.40;99.90;;;;;;5046814;28;20449;-72
2021/01/18 02:11:41;;;;;;;19.30;14.57;;;2.50;99.90;;;;;;5045232;28;20217;-73
2021/01/18 02:14:13;;;;;;;21.63;15.53;;;2.40;99.90;;;;;;5037914;28;20741;-73
2021/01/18 02:16:50;;;;;;;19.80;13.57;;;2.40;99.90;;;;;;5045538;28;20190;-73
2021/01/18 02:19:42;;;;;;;25.80;15.60;;;2.50;99.90;;;;;;5047533;28;20587;-75
2021/01/18 02:22:26;;;;;;;19.90;15.23;;;2.40;99.90;;;;;;5045959;28;20436;-72
2021/01/18 02:25:10;;;;;;;18.07;15.13;;;2.50;99.90;;;;;;5048111;28;20880;-72
2021/01/18 02:28:06;;;;;;;20.40;14.63;;;2.50;99.90;;;;;;5034964;28;20519;-71
2021/01/18 02:31:02;;;;;;;19.60;13.17;;;2.40;99.90;;;;;;5035548;28;21045;-73
2021/01/18 02:33:51;;;;;;;18.77;13.20;;;2.40;99.90;;;;;;5037687;28;20457;-72
2021/01/18 02:36:19;;;;;;;22.93;16.20;;;2.40;99.90;;;;;;5043574;28;20430;-73
2021/01/18 02:39:09;;;;;;;18.50;14.50;;;2.40;99.90;;;;;;5045911;28;20501;-73
2021/01/18 02:41:48;;;;;;;19.83;15.57;;;2.50;99.90;;;;;;5037699;28;20433;-72
2021/01/18 02:44:17;;;;;;;21.10;14.70;;;2.40;99.90;;;;;;5046140;28;20440;-73
2021/01/18 02:46:45;;;;;;;17.70;13.03;;;2.40;99.90;;;;;;5039870;28;20524;-73
2021/01/18 02:49:12;;;;;;;21.60;15.80;;;2.40;99.90;;;;;;5045082;28;20945;-73
2021/01/18 02:51:42;;;;;;;24.37;15.77;;;2.40;99.90;;;;;;5043289;28;20476;-72
2021/01/18 02:54:08;;;;;;;19.10;13.77;;;2.40;99.90;;;;;;5045472;28;20420;-73
2021/01/18 02:56:34;;;;;;;23.07;14.27;;;2.40;99.90;;;;;;5042614;28;20421;-72
2021/01/18 02:59:01;;;;;;;21.43;14.20;;;2.50;99.90;;;;;;5040786;28;20217;-72
2021/01/18 03:01:48;;;;;;;19.23;13.40;;;2.50;99.90;;;;;;5046918;28;21003;-73
2021/01/18 03:04:36;;;;;;;23.10;14.97;;;2.50;99.90;;;;;;5047223;28;20420;-73
2021/01/18 03:07:11;;;;;;;24.73;13.83;;;2.50;99.90;;;;;;5044670;28;20937;-72
2021/01/18 03:09:47;;;;;;;21.23;15.47;;;2.40;99.90;;;;;;5044549;28;20838;-74
2021/01/18 03:12:20;;;;;;;20.57;14.67;;;2.50;99.90;;;;;;5046497;28;20800;-73
2021/01/18 03:14:48;;;;;;;23.80;14.70;;;2.50;99.90;;;;;;5043063;28;20429;-73
2021/01/18 03:17:22;;;;;;;19.97;15.10;;;2.50;99.90;;;;;;5043170;28;20495;-72
2021/01/18 03:19:48;;;;;;;21.17;15.30;;;2.50;99.90;;;;;;5034750;28;20450;-72
2021/01/18 03:22:25;;;;;;;23.63;15.40;;;2.50;99.90;;;;;;5046216;28;20444;-72
2021/01/18 03:24:50;;;;;;;25.87;16.67;;;2.50;99.90;;;;;;5047098;28;20443;-73
2021/01/18 03:27:16;;;;;;;22.80;15.20;;;2.50;99.90;;;;;;5040902;28;20445;-73
2021/01/18 03:29:42;;;;;;;18.70;14.80;;;2.50;99.90;;;;;;5044056;28;20220;-74
2021/01/18 03:32:09;;;;;;;19.90;13.97;;;2.50;99.90;;;;;;5037407;28;20709;-72
2021/01/18 03:34:38;;;;;;;20.77;14.40;;;2.50;99.90;;;;;;5042309;28;20425;-73
2021/01/18 03:37:04;;;;;;;22.83;15.23;;;2.50;99.90;;;;;;5036717;28;20472;-73
2021/01/18 03:39:32;;;;;;;19.80;15.07;;;2.50;99.90;;;;;;5039366;28;20461;-73
2021/01/18 03:41:58;;;;;;;24.60;15.13;;;2.50;99.90;;;;;;5035014;28;20204;-73
2021/01/18 03:44:23;;;;;;;25.97;15.10;;;2.50;99.90;;;;;;5046610;28;20535;-73
2021/01/18 03:46:49;;;;;;;22.53;13.93;;;2.40;99.90;;;;;;5040360;28;20271;-73
2021/01/18 03:49:15;;;;;;;22.67;14.67;;;2.50;99.90;;;;;;5037741;28;20209;-72
2021/01/18 03:51:40;;;;;;;22.50;14.67;;;2.50;99.90;;;;;;5045240;28;20210;-73
2021/01/18 03:54:06;;;;;;;20.77;14.20;;;2.50;99.90;;;;;;5036556;28;20569;-72
2021/01/18 03:56:41;;;;;;;17.00;13.63;;;2.50;99.90;;;;;;5044502;28;20182;-72
2021/01/18 03:59:07;;;;;;;20.87;13.93;;;2.50;99.90;;;;;;5044504;28;20468;-72
2021/01/18 04:01:39;;;;;;;22.17;14.20;;;2.50;99.90;;;;;;5046363;28;20443;-72
2021/01/18 04:04:06;;;;;;;15.83;12.70;;;2.50;99.90;;;;;;5040958;28;20670;-73
2021/01/18 04:06:41;;;;;;;15.70;12.30;;;2.50;99.90;;;;;;5040849;28;20434;-72
2021/01/18 04:09:07;;;;;;;16.03;12.63;;;2.50;99.90;;;;;;5042468;28;20662;-74
2021/01/18 04:11:33;;;;;;;20.03;12.87;;;2.50;99.90;;;;;;5040737;28;20469;-72
2021/01/18 04:13:59;;;;;;;25.63;14.53;;;2.50;99.90;;;;;;5046733;28;20424;-72
2021/01/18 04:16:25;;;;;;;20.47;13.23;;;2.50;99.90;;;;;;5044618;28;20193;-72
2021/01/18 04:18:51;;;;;;;16.90;12.50;;;2.50;99.90;;;;;;5047863;28;20551;-72
2021/01/18 04:21:17;;;;;;;20.43;11.67;;;2.50;99.90;;;;;;5038015;28;20677;-72
2021/01/18 04:23:43;;;;;;;15.30;11.60;;;2.60;99.90;;;;;;5041617;28;20757;-72
2021/01/18 04:26:08;;;;;;;17.80;13.03;;;2.50;99.90;;;;;;5045819;28;20524;-72
2021/01/18 04:28:34;;;;;;;16.47;10.70;;;2.60;99.90;;;;;;5045965;28;20552;-73
2021/01/18 04:31:00;;;;;;;14.80;11.30;;;2.60;99.90;;;;;;5040615;28;20222;-73
2021/01/18 04:33:26;;;;;;;18.90;12.80;;;2.60;99.90;;;;;;5038591;28;20451;-73
2021/01/18 04:35:55;;;;;;;16.90;11.53;;;2.60;99.90;;;;;;5044701;28;20186;-72
2021/01/18 04:38:20;;;;;;;14.90;11.30;;;2.70;99.90;;;;;;5038545;28;20205;-74
2021/01/18 04:40:46;;;;;;;17.37;11.40;;;2.60;99.90;;;;;;5038916;28;20860;-73
2021/01/18 04:43:15;;;;;;;17.57;11.30;;;2.60;99.90;;;;;;5043439;28;20190;-72
2021/01/18 04:45:41;;;;;;;18.93;12.20;;;2.60;99.90;;;;;;5047432;28;20222;-73
2021/01/18 04:48:07;;;;;;;16.80;11.90;;;2.60;99.90;;;;;;5045143;28;20433;-73
2021/01/18 04:50:34;;;;;;;16.63;11.23;;;2.60;99.90;;;;;;5043037;28;20468;-72
2021/01/18 04:53:13;;;;;;;16.80;11.60;;;2.60;99.90;;;;;;5045872;28;20445;-74
2021/01/18 04:55:41;;;;;;;21.90;11.80;;;2.60;99.90;;;;;;5043483;28;20429;-73
2021/01/18 04:58:09;;;;;;;13.50;10.53;;;2.60;99.90;;;;;;5038077;28;20958;-73
2021/01/18 05:00:50;;;;;;;13.97;10.73;;;2.60;99.90;;;;;;5044569;28;20452;-73
2021/01/18 05:03:18;;;;;;;15.10;10.93;;;2.60;99.90;;;;;;5048312;28;20428;-72
2021/01/18 05:05:53;;;;;;;18.40;11.13;;;2.60;99.90;;;;;;5043306;28;20983;-73
2021/01/18 05:08:41;;;;;;;16.63;11.47;;;2.60;99.90;;;;;;5040829;28;20516;-73
2021/01/18 05:11:14;;;;;;;17.93;11.07;;;2.60;99.90;;;;;;5047759;28;20480;-73
2021/01/18 05:13:40;;;;;;;15.97;11.10;;;2.60;99.90;;;;;;5047342;28;20437;-73
2021/01/18 05:16:07;;;;;;;17.00;10.80;;;2.60;99.90;;;;;;5048291;28;20435;-73
2021/01/18 05:18:34;;;;;;;15.80;11.40;;;2.60;99.90;;;;;;5048975;28;20219;-72
2021/01/18 05:21:05;;;;;;;17.30;13.30;;;2.60;99.90;;;;;;5039970;28;20441;-73
2021/01/18 05:23:31;;;;;;;15.77;10.53;;;2.60;99.90;;;;;;5043995;28;20847;-73
2021/01/18 05:26:27;;;;;;;12.07;10.23;;;2.60;99.90;;;;;;5042313;28;20456;-72
2021/01/18 05:28:56;;;;;;;12.80;9.87;;;2.60;99.90;;;;;;5043120;28;20488;-72
2021/01/18 05:31:28;;;;;;;14.30;10.60;;;2.60;99.90;;;;;;5043744;28;20552;-72
2021/01/18 05:34:02;;;;;;;15.87;10.67;;;2.60;99.90;;;;;;5047377;28;20441;-72
2021/01/18 05:36:48;;;;;;;17.60;11.63;;;2.50;99.90;;;;;;5047677;28;20631;-72
2021/01/18 05:39:25;;;;;;;18.17;10.53;;;2.50;99.90;;;;;;5049172;28;20437;-72
2021/01/18 05:41:53;;;;;;;15.67;9.90;;;2.50;99.90;;;;;;5046430;28;20440;-73
2021/01/18 05:44:20;;;;;;;15.73;10.43;;;2.40;99.90;;;;;;5039457;28;20954;-73
2021/01/18 05:46:47;;;;;;;16.73;10.57;;;2.40;99.90;;;;;;5044253;28;20436;-73
2021/01/18 05:49:18;;;;;;;17.47;10.33;;;2.30;99.90;;;;;;5040073;28;20826;-72
2021/01/18 05:51:51;;;;;;;14.83;9.77;;;2.30;99.90;;;;;;5043555;28;20502;-73
2021/01/18 05:54:24;;;;;;;12.00;9.93;;;2.30;99.90;;;;;;5045919;28;20428;-74
2021/01/18 05:56:53;;;;;;;13.93;9.73;;;2.20;99.90;;;;;;5045421;28;20941;-74
2021/01/18 05:59:23;;;;;;;16.40;10.13;;;2.20;99.90;;;;;;5044239;28;20567;-75
2021/01/18 06:01:50;;;;;;;26.47;13.63;;;2.20;99.90;;;;;;5043404;28;20444;-73
2021/01/18 06:04:22;;;;;;;15.23;10.90;;;2.10;99.90;;;;;;5046531;28;20504;-74
2021/01/18 06:06:57;;;;;;;15.70;9.80;;;2.10;99.90;;;;;;5042050;28;20444;-71
2021/01/18 06:09:41;;;;;;;16.43;11.77;;;2.10;99.90;;;;;;5039792;28;20535;-73
2021/01/18 06:12:39;;;;;;;19.30;11.40;;;2.10;99.90;;;;;;5038525;28;20857;-73
2021/01/18 06:15:14;;;;;;;13.67;10.30;;;2.00;99.90;;;;;;4971477;28;20483;-75
2021/01/18 06:17:47;;;;;;;18.07;10.63;;;2.00;99.90;;;;;;4966564;28;21008;-71
2021/01/18 06:20:20;;;;;;;13.77;10.40;;;2.10;99.90;;;;;;4966305;28;20961;-73
2021/01/18 06:22:51;;;;;;;16.17;10.80;;;2.00;99.90;;;;;;4966437;28;20964;-73
2021/01/18 06:25:17;;;;;;;16.90;10.93;;;2.10;99.90;;;;;;4967268;28;20775;-73
2021/01/18 06:27:42;;;;;;;17.80;11.97;;;2.00;99.90;;;;;;4965240;28;20492;-72
2021/01/18 06:30:29;;;;;;;21.33;12.87;;;2.10;99.90;;;;;;4951913;28;20988;-72
2021/01/18 06:33:00;;;;;;;19.90;11.40;;;2.10;99.90;;;;;;4966907;28;20696;-72
2021/01/18 06:35:29;;;;;;;15.77;10.80;;;2.10;99.90;;;;;;4950558;28;20436;-72
2021/01/18 06:38:02;;;;;;;20.53;11.53;;;2.10;99.90;;;;;;4967239;28;20480;-73
2021/01/18 06:40:33;;;;;;;15.80;10.23;;;2.10;99.90;;;;;;4950561;28;20514;-72
2021/01/18 06:43:00;;;;;;;11.93;9.90;;;2.10;99.90;;;;;;4966612;28;20902;-74
2021/01/18 06:45:31;;;;;;;14.93;10.20;;;2.10;99.90;;;;;;4966764;28;21001;-72
2021/01/18 06:47:58;;;;;;;15.83;10.90;;;2.10;99.90;;;;;;4968930;28;20454;-72
2021/01/18 06:50:28;;;;;;;16.33;10.50;;;2.10;99.90;;;;;;4998473;28;20468;-72
2021/01/18 06:52:56;;;;;;;15.90;10.90;;;2.10;99.90;;;;;;5039166;28;20418;-73
2021/01/18 06:55:25;;;;;;;15.43;10.30;;;2.10;99.90;;;;;;5043768;28;20520;-72
2021/01/18 06:58:07;;;;;;;18.53;9.10;;;2.10;99.90;;;;;;5045029;28;20949;-72
2021/01/18 07:00:39;;;;;;;11.60;8.70;;;2.10;99.90;;;;;;5039776;28;20509;-72
2021/01/18 07:03:18;;;;;;;13.30;9.10;;;2.20;99.90;;;;;;5046517;28;20432;-73
2021/01/18 07:05:47;;;;;;;13.23;10.77;;;2.20;99.90;;;;;;5047489;28;20842;-72
2021/01/18 07:08:21;;;;;;;12.87;10.00;;;2.20;99.90;;;;;;5045849;28;20462;-73
2021/01/18 07:10:49;;;;;;;11.07;9.30;;;2.10;99.90;;;;;;5047295;28;20459;-72
2021/01/18 07:13:18;;;;;;;16.13;9.57;;;2.10;99.90;;;;;;5046301;28;20434;-73
2021/01/18 07:15:44;;;;;;;13.07;9.03;;;2.20;99.90;;;;;;5047405;28;20413;-73
2021/01/18 07:18:11;;;;;;;16.63;10.90;;;2.10;99.90;;;;;;5045100;28;20451;-72
2021/01/18 07:20:43;;;;;;;15.60;10.70;;;2.20;99.90;;;;;;5046864;28;20425;-74
2021/01/18 07:23:25;;;;;;;14.40;8.67;;;2.20;99.90;;;;;;5047325;28;20409;-72
2021/01/18 07:26:11;;;;;;;13.87;10.00;;;2.20;99.90;;;;;;5045443;28;20872;-73
2021/01/18 07:28:37;;;;;;;11.90;8.80;;;2.20;99.90;;;;;;5041394;28;20929;-73
2021/01/18 07:31:02;;;;;;;14.90;9.43;;;2.20;99.90;;;;;;5045690;28;20456;-72
2021/01/18 07:33:28;;;;;;;10.93;8.60;;;2.30;99.90;;;;;;5046827;28;20801;-72
2021/01/18 07:35:54;;;;;;;14.97;9.37;;;2.20;99.90;;;;;;5046789;28;20189;-72
2021/01/18 07:38:25;;;;;;;11.50;8.20;;;2.20;99.90;;;;;;5052518;28;20220;-72
2021/01/18 07:41:06;;;;;;;10.23;7.97;;;2.30;99.90;;;;;;5041513;28;20191;-73
2021/01/18 07:43:37;;;;;;;13.60;8.60;;;2.30;99.90;;;;;;5045784;28;20782;-73
2021/01/18 07:46:28;;;;;;;12.00;8.87;;;2.30;99.90;;;;;;5045268;28;20425;-73
2021/01/18 07:48:56;;;;;;;13.43;8.30;;;2.20;99.90;;;;;;5033486;28;20544;-74
2021/01/18 07:51:22;;;;;;;16.20;9.50;;;2.20;99.90;;;;;;5046689;28;20822;-73
2021/01/18 07:53:48;;;;;;;13.03;10.57;;;2.20;99.90;;;;;;5046253;28;20436;-73
2021/01/18 07:56:27;;;;;;;10.80;8.77;;;2.30;99.90;;;;;;5044593;28;20425;-74
2021/01/18 07:59:04;;;;;;;11.53;9.10;;;2.30;99.90;;;;;;5045349;28;20585;-73
2021/01/18 08:01:36;;;;;;;14.77;8.63;;;2.30;99.90;;;;;;5039913;28;20421;-72
2021/01/18 08:04:23;;;;;;;16.00;8.40;;;2.30;99.90;;;;;;5046489;28;20487;-72
2021/01/18 08:07:06;;;;;;;11.33;7.70;;;2.30;99.90;;;;;;5040351;28;20456;-73
2021/01/18 08:09:33;;;;;;;9.67;7.50;;;2.40;99.90;;;;;;5039776;28;20485;-72
2021/01/18 08:12:33;;;;;;;14.87;10.00;;;2.30;99.90;;;;;;5045846;28;20465;-73
2021/01/18 08:15:09;;;;;;;10.67;9.17;;;2.30;99.90;;;;;;5041864;28;20441;-73
2021/01/18 08:17:36;;;;;;;9.80;8.00;;;2.30;99.90;;;;;;5041031;28;20474;-72
2021/01/18 08:20:13;;;;;;;10.90;9.80;;;2.30;99.90;;;;;;5044262;28;20453;-73
2021/01/18 08:22:39;;;;;;;12.40;7.73;;;2.30;99.90;;;;;;5038318;28;20523;-73
2021/01/18 08:25:05;;;;;;;12.97;8.73;;;2.30;99.90;;;;;;5038619;28;20492;-73
2021/01/18 08:27:55;;;;;;;17.70;9.33;;;2.30;99.90;;;;;;5044069;28;20182;-73
2021/01/18 08:30:39;;;;;;;14.63;9.40;;;2.30;99.90;;;;;;5037828;28;20421;-73
2021/01/18 08:33:16;;;;;;;13.87;8.40;;;2.40;99.90;;;;;;5037626;28;20437;-73
2021/01/18 08:35:48;;;;;;;9.53;8.00;;;2.50;99.90;;;;;;5043709;28;20489;-74
2021/01/18 08:38:26;;;;;;;12.23;7.10;;;2.40;99.90;;;;;;5043356;28;20926;-74
2021/01/18 08:41:00;;;;;;;12.70;8.00;;;2.40;99.90;;;;;;5045221;28;20466;-74
2021/01/18 08:43:50;;;;;;;12.43;8.70;;;2.40;99.90;;;;;;5034038;28;20440;-74
2021/01/18 08:46:33;;;;;;;10.10;8.20;;;2.50;99.90;;;;;;5045644;28;21238;-72
2021/01/18 08:49:28;;;;;;;14.10;8.67;;;2.50;99.90;;;;;;5041846;28;20451;-73
2021/01/18 08:51:56;;;;;;;11.37;7.70;;;2.50;99.90;;;;;;5041068;28;20988;-73
2021/01/18 08:54:47;;;;;;;13.60;9.00;;;2.50;99.90;;;;;;5044957;28;20433;-73
2021/01/18 08:57:24;;;;;;;16.60;11.60;;;2.50;99.90;;;;;;5042114;28;20991;-73
2021/01/18 09:00:02;;;;;;;16.17;10.33;;;2.50;99.90;;;;;;5037744;28;20981;-73
2021/01/18 09:02:27;;;;;;;8.67;7.63;;;2.60;99.90;;;;;;5041989;28;20839;-73
2021/01/18 09:04:53;;;;;;;11.80;8.00;;;2.60;99.90;;;;;;5037047;28;20520;-74
2021/01/18 09:07:18;;;;;;;15.17;9.63;;;2.60;99.90;;;;;;5045083;28;20559;-73
2021/01/18 09:09:44;;;;;;;12.93;8.73;;;2.60;99.90;;;;;;5042657;28;20221;-73
2021/01/18 09:12:11;;;;;;;15.00;9.37;;;2.60;99.90;;;;;;5038509;28;20835;-74
2021/01/18 09:14:37;;;;;;;12.97;10.53;;;2.60;99.90;;;;;;5038330;28;20179;-72
2021/01/18 09:17:09;;;;;;;15.70;10.77;;;2.60;99.90;;;;;;5044008;28;20421;-73
2021/01/18 09:19:51;;;;;;;16.43;10.27;;;2.60;99.90;;;;;;5039940;28;20281;-72
2021/01/18 09:22:18;;;;;;;19.40;10.87;;;2.70;99.90;;;;;;5038812;28;20478;-74
2021/01/18 09:24:44;;;;;;;12.03;9.63;;;2.70;99.90;;;;;;5041745;28;20511;-72
2021/01/18 09:27:10;;;;;;;13.00;10.33;;;2.70;99.90;;;;;;5052453;28;20512;-72
2021/01/18 09:29:36;;;;;;;14.23;9.00;;;2.70;99.90;;;;;;5043722;28;20259;-72
2021/01/18 09:32:03;;;;;;;15.50;9.73;;;2.70;99.90;;;;;;5047040;28;20744;-76
2021/01/18 09:34:30;;;;;;;17.73;12.13;;;2.70;99.90;;;;;;5042738;28;20183;-72
2021/01/18 09:37:06;;;;;;;15.60;11.20;;;2.80;99.90;;;;;;5044539;28;20439;-73
2021/01/18 09:39:31;;;;;;;16.93;11.17;;;2.80;99.90;;;;;;5047594;28;20964;-73
2021/01/18 09:41:59;;;;;;;15.90;11.43;;;2.80;99.90;;;;;;5048996;28;20455;-73
2021/01/18 09:44:24;;;;;;;27.77;13.40;;;2.70;99.90;;;;;;5048208;28;20178;-73
2021/01/18 09:46:51;;;;;;;21.93;11.00;;;2.80;99.90;;;;;;5044515;28;20436;-73
2021/01/18 09:49:29;;;;;;;16.77;11.10;;;2.80;99.90;;;;;;5047569;28;20433;-72
2021/01/18 09:51:57;;;;;;;13.90;10.80;;;2.90;99.90;;;;;;5040139;28;20543;-74
2021/01/18 09:54:22;;;;;;;16.93;10.50;;;2.90;99.90;;;;;;5044963;28;20509;-73
2021/01/18 09:56:54;;;;;;;15.83;11.73;;;2.90;99.90;;;;;;5041173;28;20502;-71
2021/01/18 09:59:21;;;;;;;17.50;11.97;;;2.90;99.90;;;;;;5045656;28;20233;-71
2021/01/18 10:01:50;;;;;;;12.93;10.83;;;3.00;99.90;;;;;;5041299;28;20451;-73
2021/01/18 10:04:22;;;;;;;20.70;12.60;;;3.00;99.90;;;;;;5047913;28;20435;-72
2021/01/18 10:06:49;;;;;;;16.67;12.50;;;3.10;99.90;;;;;;5040506;28;20429;-71
2021/01/18 10:09:22;;;;;;;15.83;10.80;;;3.10;99.90;;;;;;5048572;28;20449;-73
2021/01/18 10:11:48;;;;;;;18.97;12.50;;;3.20;99.90;;;;;;5047699;28;20984;-73
2021/01/18 10:14:19;;;;;;;16.00;11.60;;;3.30;99.90;;;;;;5047650;28;20429;-72
2021/01/18 10:17:00;;;;;;;17.93;12.43;;;3.30;99.90;;;;;;5044972;28;20441;-71
2021/01/18 10:19:27;;;;;;;15.93;11.67;;;3.30;99.90;;;;;;5043627;28;20492;-73
2021/01/18 10:21:54;;;;;;;17.33;13.03;;;3.30;99.90;;;;;;5062353;28;20443;-73
2021/01/18 10:24:33;;;;;;;14.20;10.33;;;3.30;99.90;;;;;;5041725;28;20479;-72
2021/01/18 10:27:10;;;;;;;20.10;12.90;;;3.30;99.90;;;;;;5047972;28;20453;-72
2021/01/18 10:29:38;;;;;;;17.67;12.80;;;3.40;99.90;;;;;;5043804;28;20452;-72
2021/01/18 10:32:05;;;;;;;20.03;12.97;;;3.40;99.90;;;;;;5046511;28;20468;-73
2021/01/18 10:34:34;;;;;;;18.97;12.63;;;3.40;99.90;;;;;;5041617;28;20429;-72
2021/01/18 10:37:15;;;;;;;17.57;13.03;;;3.50;99.90;;;;;;5045751;28;20760;-73
2021/01/18 10:39:42;;;;;;;20.97;14.17;;;3.50;99.90;;;;;;5045738;28;20471;-73
2021/01/18 10:42:13;;;;;;;19.17;13.37;;;3.40;99.90;;;;;;5044826;28;20508;-73
2021/01/18 10:44:52;;;;;;;22.90;14.30;;;3.50;99.90;;;;;;5062843;28;20451;-72
2021/01/18 10:47:22;;;;;;;14.20;11.70;;;3.50;99.90;;;;;;5047051;28;20493;-73
2021/01/18 10:49:59;;;;;;;18.90;11.60;;;3.60;99.90;;;;;;5047780;28;20486;-73
2021/01/18 10:52:37;;;;;;;18.83;11.13;;;3.60;99.90;;;;;;5046311;28;20476;-73
2021/01/18 10:55:05;;;;;;;17.03;11.30;;;3.60;99.90;;;;;;5046714;28;20437;-73
2021/01/18 10:57:37;;;;;;;22.43;13.37;;;3.60;99.90;;;;;;5046903;28;20826;-74
2021/01/18 11:00:10;;;;;;;17.30;11.20;;;3.70;99.90;;;;;;5049418;28;20460;-72
2021/01/18 11:02:41;;;;;;;17.67;10.60;;;3.80;99.90;;;;;;5044533;28;20859;-72
2021/01/18 11:05:10;;;;;;;16.83;11.37;;;3.90;99.90;;;;;;5047700;28;20459;-73
2021/01/18 11:07:38;;;;;;;17.83;12.37;;;3.90;99.90;;;;;;5041632;28;20433;-72
2021/01/18 11:10:05;;;;;;;18.37;13.23;;;3.80;99.90;;;;;;5037670;28;20487;-72
2021/01/18 11:12:41;;;;;;;18.47;11.77;;;3.90;99.90;;;;;;5045151;28;20476;-73
2021/01/18 11:15:09;;;;;;;22.07;13.00;;;3.80;99.90;;;;;;5044370;28;20444;-72
2021/01/18 11:17:35;;;;;;;17.23;12.50;;;3.80;99.90;;;;;;5046933;28;20417;-73
2021/01/18 11:20:01;;;;;;;14.90;11.23;;;3.80;99.90;;;;;;5041434;28;20498;-73
2021/01/18 11:22:26;;;;;;;17.00;12.93;;;3.90;99.90;;;;;;5045678;28;20183;-73
2021/01/18 11:24:52;;;;;;;17.67;13.10;;;4.00;99.90;;;;;;5042297;28;20984;-72
2021/01/18 11:27:18;;;;;;;17.50;12.60;;;4.00;99.90;;;;;;5045893;28;20594;-72
2021/01/18 11:29:43;;;;;;;17.10;13.53;;;3.80;99.90;;;;;;5043858;28;20214;-73
2021/01/18 11:32:09;;;;;;;15.40;13.70;;;3.70;99.90;;;;;;5046711;28;20468;-73
2021/01/18 11:34:35;;;;;;;24.07;13.30;;;3.80;99.90;;;;;;5042121;28;20175;-72
2021/01/18 11:37:05;;;;;;;20.37;12.20;;;3.70;99.90;;;;;;5045909;28;20425;-73
2021/01/18 11:39:30;;;;;;;16.40;11.57;;;3.60;99.90;;;;;;5045705;28;20210;-72
2021/01/18 11:41:59;;;;;;;22.83;12.57;;;3.50;99.90;;;;;;5044648;28;20440;-72
2021/01/18 11:44:24;;;;;;;18.13;14.53;;;3.50;99.90;;;;;;5042229;28;20273;-72
2021/01/18 11:46:57;;;;;;;16.13;12.10;;;3.50;99.90;;;;;;5044676;28;21029;-73
2021/01/18 11:49:23;;;;;;;17.60;14.47;;;3.50;99.90;;;;;;5036596;28;20539;-73
2021/01/18 11:51:51;;;;;;;19.07;12.37;;;3.60;99.90;;;;;;5043736;28;20472;-72
2021/01/18 11:54:16;;;;;;;19.53;13.17;;;3.50;99.90;;;;;;5043732;28;20502;-73
2021/01/18 11:56:42;;;;;;;14.60;12.20;;;3.60;99.90;;;;;;5040192;28;20445;-72
2021/01/18 11:59:08;;;;;;;16.33;12.10;;;3.60;99.90;;;;;;5046061;28;20236;-72
2021/01/18 12:01:40;;;;;;;20.70;12.53;;;3.60;99.90;;;;;;5042598;28;20201;-72
2021/01/18 12:04:06;;;;;;;18.80;14.07;;;3.70;99.90;;;;;;5059843;28;20429;-72
2021/01/18 12:06:39;;;;;;;18.93;12.57;;;3.70;99.90;;;;;;5041196;28;20451;-74
2021/01/18 12:09:06;;;;;;;21.83;14.80;;;3.70;99.90;;;;;;5041594;28;20216;-74
2021/01/18 12:11:36;;;;;;;18.90;12.83;;;3.70;99.90;;;;;;5042832;28;20468;-73
2021/01/18 12:14:02;;;;;;;16.13;12.20;;;3.80;99.90;;;;;;5045518;28;20788;-72
2021/01/18 12:16:28;;;;;;;19.30;12.83;;;3.80;99.90;;;;;;5036404;28;20504;-72
2021/01/18 12:18:54;;;;;;;15.53;12.87;;;3.80;99.90;;;;;;5042626;28;20205;-73
2021/01/18 12:21:20;;;;;;;16.67;12.53;;;3.90;99.90;;;;;;5044680;28;20425;-73
2021/01/18 12:23:46;;;;;;;18.83;12.80;;;4.00;99.90;;;;;;5031059;28;20223;-74
2021/01/18 12:26:16;;;;;;;19.57;12.50;;;4.10;99.90;;;;;;5045006;28;20213;-78
2021/01/18 12:28:42;;;;;;;17.90;12.20;;;4.10;99.90;;;;;;5039810;28;21031;-72
2021/01/18 12:31:07;;;;;;;15.90;12.70;;;4.10;99.90;;;;;;5043697;28;20465;-72
2021/01/18 12:33:33;;;;;;;16.30;12.13;;;4.10;99.90;;;;;;5041102;28;20877;-73
2021/01/18 12:35:58;;;;;;;20.73;11.37;;;4.10;99.90;;;;;;5043161;28;20194;-78
2021/01/18 12:38:24;;;;;;;20.60;13.47;;;4.20;99.90;;;;;;5046207;28;20202;-72
2021/01/18 12:40:49;;;;;;;19.33;12.70;;;4.10;99.90;;;;;;5038423;28;20191;-72
2021/01/18 12:43:18;;;;;;;15.33;11.90;;;4.20;99.90;;;;;;5042463;28;20222;-73
2021/01/18 12:45:45;;;;;;;14.67;10.60;;;4.20;99.90;;;;;;5035765;28;20186;-73
2021/01/18 12:48:11;;;;;;;12.20;10.50;;;4.30;99.90;;;;;;5044604;28;20437;-74
2021/01/18 12:50:38;;;;;;;17.33;12.50;;;4.30;99.90;;;;;;5038967;28;20443;-76
2021/01/18 12:53:03;;;;;;;11.80;10.20;;;4.20;99.90;;;;;;5043819;28;20483;-77
2021/01/18 12:55:29;;;;;;;17.60;10.50;;;4.20;99.90;;;;;;5044398;28;20453;-73